TimeEDT,TemperatureF,Dew PointF,Humidity,Sea Level PressureIn,VisibilityMPH,Wind Direction,Wind SpeedMPH,Gust SpeedMPH,PrecipitationIn,Events,Conditions,WindDirDegrees,DateUTC
12:53 AM,70.0,66.0,87,30.26,10.0,NE,4.6,-,N/A,,Clear,40,2013-04-27 04:53:00
1:53 AM,69.1,66.0,90,30.23,10.0,Calm,Calm,-,N/A,,Clear,0,2013-04-27 05:53:00
2:53 AM,68.0,64.9,90,30.21,9.0,NE,3.5,-,N/A,,Clear,40,2013-04-27 06:53:00
3:53 AM,66.9,64.9,93,30.21,8.0,Calm,Calm,-,N/A,,Clear,0,2013-04-27 07:53:00
4:53 AM,66.0,64.0,93,30.20,7.0,Calm,Calm,-,N/A,,Clear,0,2013-04-27 08:53:00
5:53 AM,66.0,64.0,93,30.20,7.0,NNE,4.6,-,N/A,,Clear,30,2013-04-27 09:53:00
6:53 AM,66.0,64.0,93,30.21,6.0,NNE,3.5,-,N/A,,Clear,30,2013-04-27 10:53:00
7:53 AM,68.0,66.0,93,30.22,8.0,NE,4.6,-,N/A,,Clear,40,2013-04-27 11:53:00
8:53 AM,73.0,66.9,81,30.23,10.0,ENE,5.8,-,N/A,,Partly Cloudy,60,2013-04-27 12:53:00
9:53 AM,78.1,66.0,66,30.24,10.0,ENE,10.4,-,N/A,,Partly Cloudy,70,2013-04-27 13:53:00
10:53 AM,80.1,64.0,58,30.25,10.0,East,12.7,-,N/A,,Scattered Clouds,80,2013-04-27 14:53:00
11:53 AM,81.0,62.1,52,30.23,10.0,East,10.4,19.6,N/A,,Partly Cloudy,100,2013-04-27 15:53:00
12:53 PM,82.0,61.0,49,30.22,10.0,East,8.1,-,N/A,,Mostly Cloudy,90,2013-04-27 16:53:00
1:53 PM,84.0,60.1,44,30.19,10.0,East,10.4,18.4,N/A,,Clear,80,2013-04-27 17:53:00
2:53 PM,84.9,57.9,40,30.17,10.0,ESE,8.1,-,N/A,,Clear,110,2013-04-27 18:53:00
3:53 PM,84.9,59.0,41,30.15,10.0,SE,8.1,-,N/A,,Clear,140,2013-04-27 19:53:00
4:53 PM,84.9,57.0,38,30.13,10.0,East,10.4,-,N/A,,Partly Cloudy,80,2013-04-27 20:53:00
5:53 PM,84.9,57.9,40,30.13,10.0,ESE,10.4,-,N/A,,Clear,110,2013-04-27 21:53:00
6:53 PM,81.0,60.1,49,30.14,10.0,East,12.7,-,N/A,,Mostly Cloudy,90,2013-04-27 22:53:00
7:53 PM,77.0,60.1,56,30.14,10.0,East,12.7,-,N/A,,Clear,80,2013-04-27 23:53:00
8:53 PM,75.0,60.1,60,30.16,10.0,East,9.2,-,N/A,,Clear,80,2013-04-28 00:53:00
9:53 PM,73.0,63.0,71,30.17,10.0,East,10.4,-,N/A,,Clear,80,2013-04-28 01:53:00
10:53 PM,72.0,64.0,76,30.18,10.0,East,6.9,-,N/A,,Clear,80,2013-04-28 02:53:00
11:53 PM,71.1,64.9,81,30.17,10.0,East,5.8,-,N/A,,Clear,100,2013-04-28 03:53:00